Terminal Aerodrome Forecast
Issued by NWS

Home | Current Version | Previous Version | Text Only | Print | Product List | Glossary On
Versions: 1 2 3 4 5 6 7 8 9 10 11 12 13 14 15
451
FTUS42 KFFC 231736
TAFRYY
TAF
KRYY 231736Z 2318/2418 31008KT P6SM VCSH BKN035
     FM232100 32008KT P6SM SCT040
     FM240000 32004KT P6SM FEW040 SCT120
     FM241400 02006KT P6SM SCT035=

USA.gov is the U.S. government's official web portal to all federal, state and local government web resources and services.